createdAt,value
2018-12-13T00:00:51.007Z,97623.48
2018-12-13T00:11:10.717Z,97622.42
2018-12-13T00:21:29.981Z,97616.22
2018-12-13T00:31:49.577Z,97611.81
2018-12-13T00:42:10.031Z,97601.88
2018-12-13T00:52:29.511Z,97605.28
2018-12-13T01:02:48.637Z,97586.47
2018-12-13T01:13:08.458Z,97614.77
2018-12-13T01:23:28.761Z,97614.77
2018-12-13T01:33:49.249Z,97607.44
2018-12-13T01:44:08.645Z,97607.44
2018-12-13T01:54:29.152Z,97612.74
2018-12-13T02:04:48.902Z,97610.74
2018-12-13T02:15:09.640Z,97609.98
2018-12-13T02:25:28.904Z,97586.35
2018-12-13T02:35:48.326Z,97591.37
2018-12-13T02:46:07.740Z,97580.88
2018-12-13T02:56:26.936Z,97574.38
2018-12-13T03:06:46.857Z,97565.92
2018-12-13T03:17:06.984Z,97563.03
2018-12-13T03:27:26.850Z,97554.91
2018-12-13T03:37:46.793Z,97532.22
2018-12-13T03:48:06.383Z,97518.39
2018-12-13T03:58:26.146Z,97518.39
2018-12-13T04:08:45.561Z,97518.61
2018-12-13T04:19:05.258Z,97496.20
2018-12-13T04:29:24.817Z,97496.02
2018-12-13T04:39:44.792Z,97485.27
2018-12-13T04:50:05.052Z,97485.27
2018-12-13T05:00:24.922Z,97498.25
2018-12-13T05:10:54.769Z,97499.77
2018-12-13T05:21:14.854Z,97499.77
2018-12-13T05:31:34.397Z,97486.84
2018-12-13T05:41:54.581Z,97493.34
2018-12-13T05:52:14.052Z,97488.72
2018-12-13T06:02:34.450Z,97479.37
2018-12-13T06:12:57.206Z,97471.23
2018-12-13T06:23:17.758Z,97466.50
2018-12-13T06:33:37.895Z,97467.77
2018-12-13T06:43:57.771Z,97488.85
2018-12-13T06:54:17.473Z,97487.30
2018-12-13T07:04:38.224Z,97494.58
2018-12-13T07:14:57.813Z,97497.96
2018-12-13T07:25:17.100Z,97493.48
2018-12-13T07:35:36.208Z,97501.31
2018-12-13T07:45:56.565Z,97488.35
2018-12-13T07:56:17.594Z,97488.35
2018-12-13T08:06:36.676Z,97471.89
2018-12-13T08:16:56.228Z,97471.89
2018-12-13T08:27:17.323Z,97469.42
2018-12-13T08:37:37.318Z,97478.63
2018-12-13T08:47:56.802Z,97477.97
2018-12-13T08:58:17.488Z,97485.78
2018-12-13T09:08:37.299Z,97486.61
2018-12-13T09:18:58.020Z,97466.43
2018-12-13T09:29:17.902Z,97471.37
2018-12-13T09:39:37.785Z,97471.37
2018-12-13T09:49:57.345Z,97466.06
2018-12-13T10:00:17.636Z,97451.41
2018-12-13T10:10:37.385Z,97441.86
2018-12-13T10:20:57.214Z,97419.70
2018-12-13T10:31:17.606Z,97419.70
2018-12-13T10:41:36.781Z,97403.63
2018-12-13T10:51:57.030Z,97395.52
2018-12-13T11:02:32.469Z,97389.69
2018-12-13T11:12:51.709Z,97383.09
2018-12-13T11:23:11.585Z,97367.39
2018-12-13T11:33:31.211Z,97491.16
2018-12-13T11:43:55.371Z,97353.05
2018-12-13T11:54:43.080Z,97363.58
2018-12-13T12:05:02.776Z,97365.28
2018-12-13T12:15:22.106Z,97348.44
2018-12-13T12:25:41.826Z,97352.68
2018-12-13T12:36:03.160Z,97345.98
2018-12-13T12:46:26.125Z,97334.02
2018-12-13T12:56:47.278Z,97351.20
2018-12-13T13:07:07.046Z,97343.55
2018-12-13T13:17:26.960Z,97343.55
2018-12-13T13:27:47.443Z,97348.59
2018-12-13T13:38:06.433Z,97350.47
2018-12-13T13:48:26.154Z,97346.69
2018-12-13T13:58:53.969Z,97353.22
2018-12-13T14:09:13.694Z,97344.66
2018-12-13T14:19:33.982Z,97345.99
2018-12-13T14:29:54.471Z,97343.11
2018-12-13T14:40:15.355Z,97343.11
2018-12-13T14:50:34.835Z,97347.67
2018-12-13T15:00:55.238Z,97347.67
2018-12-13T15:11:16.283Z,97348.41
2018-12-13T15:21:35.727Z,97338.53
2018-12-13T15:31:59.514Z,97338.53
2018-12-13T15:42:15.751Z,97344.23
2018-12-13T15:52:36.206Z,97357.31
2018-12-13T16:02:55.439Z,97357.31
2018-12-13T16:13:15.695Z,97360.36
2018-12-13T16:23:35.283Z,97358.29
2018-12-13T16:33:55.865Z,97360.72
2018-12-13T16:44:17.215Z,97360.72
2018-12-13T16:54:36.527Z,97355.80
2018-12-13T17:05:03.167Z,97362.66
2018-12-13T17:15:17.811Z,97362.66
2018-12-13T17:25:39.809Z,97375.59
2018-12-13T17:36:03.888Z,97363.91
2018-12-13T17:46:24.890Z,97367.06
2018-12-13T17:56:47.750Z,97381.34
2018-12-13T18:07:10.359Z,97377.80
2018-12-13T18:17:30.848Z,97381.57
2018-12-13T18:27:52.174Z,97384.50
2018-12-13T18:38:13.659Z,97384.41
2018-12-13T18:48:36.831Z,97376.79
2018-12-13T18:58:58.861Z,97386.58
2018-12-13T19:09:21.923Z,97399.95
2018-12-13T19:19:43.834Z,97422.69
2018-12-13T19:30:07.150Z,97419.39
2018-12-13T19:40:30.577Z,97429.20
2018-12-13T19:50:52.803Z,97436.29
2018-12-13T20:01:14.780Z,97448.02
2018-12-13T20:11:36.370Z,97445.27
2018-12-13T20:21:58.057Z,97456.55
2018-12-13T20:32:19.870Z,97449.73
2018-12-13T20:42:42.508Z,97446.09
2018-12-13T20:53:04.357Z,97432.63
2018-12-13T21:03:25.700Z,97437.39
2018-12-13T21:13:47.247Z,97453.34
2018-12-13T21:24:09.161Z,97454.28
2018-12-13T21:34:32.491Z,97448.73
2018-12-13T21:44:53.550Z,97458.39
2018-12-13T21:55:14.533Z,97458.70
2018-12-13T22:05:35.647Z,97446.34
2018-12-13T22:15:55.918Z,97441.97
2018-12-13T22:26:17.337Z,97452.81
2018-12-13T22:36:39.369Z,97451.61
2018-12-13T22:46:58.957Z,97470.31
2018-12-13T22:57:19.711Z,97469.08
2018-12-13T23:07:39.554Z,97469.00
2018-12-13T23:17:59.600Z,97459.90
2018-12-13T23:28:19.221Z,97466.63
2018-12-13T23:38:38.551Z,97450.34
2018-12-13T23:48:59.243Z,97454.28
2018-12-13T23:59:18.997Z,97457.34
